Time;durP1;ratioP1;P1;durP2;ratioP2;P2;SDS_P1;SDS_P2;PMS_P1;PMS_P2;Temp;Humidity;BMP_temperature;BMP_pressure;BME280_temperature;BME280_humidity;BME280_pressure;Samples;Min_cycle;Max_cycle;Signal;HPM_P1;HPM_P2
2023/02/04 00:01:30;;;;;;;4.30;3.17;;;9.70;99.90;;;;;;4997257;28;20196;-69
2023/02/04 00:03:55;;;;;;;3.30;3.00;;;9.40;99.90;;;;;;5021054;28;20178;-70
2023/02/04 00:06:21;;;;;;;4.20;3.70;;;9.60;99.90;;;;;;5017772;28;20252;-69
2023/02/04 00:08:46;;;;;;;3.67;3.00;;;9.70;99.90;;;;;;5007641;28;20179;-69
2023/02/04 00:11:12;;;;;;;3.07;2.80;;;9.60;99.90;;;;;;4995507;28;20210;-70
2023/02/04 00:13:38;;;;;;;3.70;3.40;;;9.50;99.90;;;;;;5018802;28;20205;-70
2023/02/04 00:16:03;;;;;;;3.63;2.77;;;9.30;99.90;;;;;;4997963;28;20218;-69
2023/02/04 00:18:29;;;;;;;3.00;2.80;;;9.60;99.90;;;;;;5016362;28;20195;-70
2023/02/04 00:20:54;;;;;;;2.90;2.60;;;9.40;99.90;;;;;;5005414;28;20984;-69
2023/02/04 00:23:20;;;;;;;2.80;2.50;;;9.30;99.90;;;;;;4997159;28;20198;-70
2023/02/04 00:25:46;;;;;;;2.87;2.53;;;9.60;99.90;;;;;;4998555;28;20271;-69
2023/02/04 00:28:11;;;;;;;2.60;2.37;;;9.30;99.90;;;;;;5013018;28;20342;-70
2023/02/04 00:30:37;;;;;;;2.53;2.33;;;9.30;99.90;;;;;;5005175;28;20183;-69
2023/02/04 00:33:02;;;;;;;2.30;2.10;;;9.50;99.90;;;;;;5019608;28;20244;-69
2023/02/04 00:35:28;;;;;;;2.53;2.33;;;9.50;99.90;;;;;;4998155;28;20282;-69
2023/02/04 00:37:54;;;;;;;2.30;2.10;;;9.20;99.90;;;;;;4999101;28;20197;-70
2023/02/04 00:40:19;;;;;;;1.77;1.67;;;9.40;99.90;;;;;;5011409;28;20697;-69
2023/02/04 00:42:45;;;;;;;3.00;2.10;;;9.50;99.90;;;;;;5001836;28;20612;-69
2023/02/04 00:45:12;;;;;;;2.67;2.43;;;9.30;99.90;;;;;;5016948;28;20210;-69
2023/02/04 00:47:38;;;;;;;3.00;2.25;;;9.30;99.90;;;;;;5018790;28;20272;-69
2023/02/04 00:50:04;;;;;;;1.83;1.73;;;9.40;99.90;;;;;;4993903;28;20187;-70
2023/02/04 00:52:29;;;;;;;1.67;1.58;;;9.30;99.90;;;;;;5016759;28;20441;-70
2023/02/04 00:54:55;;;;;;;2.50;2.30;;;9.30;99.90;;;;;;4992959;28;20187;-69
2023/02/04 00:57:21;;;;;;;3.90;2.17;;;9.30;99.90;;;;;;5011550;28;20210;-69
2023/02/04 00:59:46;;;;;;;2.43;2.17;;;9.30;99.90;;;;;;5012932;28;20179;-69
2023/02/04 01:02:12;;;;;;;1.97;1.80;;;9.40;99.90;;;;;;5016547;28;20191;-69
2023/02/04 01:04:38;;;;;;;3.07;2.30;;;9.50;99.90;;;;;;5017510;28;20191;-71
2023/02/04 01:07:04;;;;;;;2.60;2.40;;;9.50;99.90;;;;;;5015551;28;20292;-70
2023/02/04 01:09:29;;;;;;;2.97;2.60;;;9.00;99.90;;;;;;5025639;28;20647;-70
2023/02/04 01:11:55;;;;;;;2.30;2.10;;;9.50;99.90;;;;;;5014676;28;20194;-69
2023/02/04 01:14:20;;;;;;;3.07;2.77;;;9.70;99.90;;;;;;5014263;28;20221;-70
2023/02/04 01:16:46;;;;;;;3.10;2.40;;;9.90;99.90;;;;;;4997762;28;20210;-70
2023/02/04 01:19:12;;;;;;;3.77;3.00;;;9.40;99.90;;;;;;5017309;28;20444;-70
2023/02/04 01:21:37;;;;;;;3.10;2.90;;;9.40;99.90;;;;;;4995227;28;20183;-70
2023/02/04 01:24:03;;;;;;;3.30;3.00;;;9.10;99.90;;;;;;4999475;28;20225;-70
2023/02/04 01:26:29;;;;;;;3.10;2.80;;;9.20;99.90;;;;;;5019873;28;20244;-69
2023/02/04 01:28:55;;;;;;;3.30;3.00;;;9.30;99.90;;;;;;5007456;28;20206;-70
2023/02/04 01:31:20;;;;;;;2.70;2.50;;;9.10;99.90;;;;;;5020089;28;20823;-70
2023/02/04 01:33:46;;;;;;;3.40;3.10;;;9.00;99.90;;;;;;5012276;28;20204;-70
2023/02/04 01:36:11;;;;;;;2.93;2.73;;;9.10;99.90;;;;;;5015753;28;21293;-70
2023/02/04 01:38:37;;;;;;;2.63;2.43;;;9.00;99.90;;;;;;5022952;28;20564;-70
2023/02/04 01:41:03;;;;;;;2.93;2.30;;;9.10;99.90;;;;;;5031926;28;20604;-70
2023/02/04 01:43:30;;;;;;;3.13;2.63;;;9.10;99.90;;;;;;5002711;28;20232;-69
2023/02/04 01:45:56;;;;;;;2.70;2.50;;;9.10;99.90;;;;;;5017543;28;20272;-70
2023/02/04 01:48:22;;;;;;;2.60;2.40;;;9.10;99.90;;;;;;5020815;28;20682;-70
2023/02/04 01:50:50;;;;;;;2.53;2.33;;;9.10;99.90;;;;;;5021938;28;20465;-70
2023/02/04 01:53:22;;;;;;;4.38;2.20;;;9.00;99.90;;;;;;5020289;28;20183;-70
2023/02/04 01:55:48;;;;;;;1.95;1.75;;;9.00;99.90;;;;;;4998983;28;20238;-69
2023/02/04 01:58:15;;;;;;;2.15;1.90;;;8.90;99.90;;;;;;5023246;28;20187;-69
2023/02/04 02:00:41;;;;;;;2.45;1.92;;;8.80;99.90;;;;;;5020059;28;20190;-70
2023/02/04 02:03:10;;;;;;;2.70;2.30;;;8.80;99.90;;;;;;5007729;28;20558;-70
2023/02/04 02:05:49;;;;;;;2.28;1.75;;;8.70;99.90;;;;;;5021156;28;20195;-69
2023/02/04 02:08:16;;;;;;;1.95;1.45;;;8.90;99.90;;;;;;5018411;28;20241;-69
2023/02/04 02:10:45;;;;;;;2.97;1.75;;;8.90;99.90;;;;;;5017386;28;20198;-69
2023/02/04 02:13:13;;;;;;;1.98;1.48;;;8.60;99.90;;;;;;5023786;28;20245;-69
2023/02/04 02:15:40;;;;;;;2.60;1.65;;;8.50;99.90;;;;;;5023564;28;20222;-70
2023/02/04 02:18:06;;;;;;;2.70;1.70;;;9.00;99.90;;;;;;5016031;28;20186;-70
2023/02/04 02:20:32;;;;;;;2.10;1.90;;;8.40;99.90;;;;;;5025633;28;20193;-70
2023/02/04 02:23:12;;;;;;;2.73;1.40;;;8.30;99.90;;;;;;5001117;28;20542;-70
2023/02/04 02:25:38;;;;;;;1.40;1.15;;;8.60;99.90;;;;;;5019207;28;20436;-69
2023/02/04 02:28:11;;;;;;;4.23;1.80;;;8.70;99.90;;;;;;5001605;28;20214;-70
2023/02/04 02:30:37;;;;;;;3.00;1.60;;;8.70;99.90;;;;;;5024224;28;20194;-70
2023/02/04 02:33:04;;;;;;;2.30;1.60;;;8.80;99.90;;;;;;5009204;28;20535;-70
2023/02/04 02:35:30;;;;;;;5.10;2.15;;;8.60;99.90;;;;;;5020148;28;20539;-70
2023/02/04 02:37:56;;;;;;;1.73;1.63;;;8.40;99.90;;;;;;5020381;28;20265;-70
2023/02/04 02:40:22;;;;;;;3.50;2.10;;;8.20;99.90;;;;;;5004030;28;20230;-70
2023/02/04 02:42:50;;;;;;;5.43;2.00;;;8.90;99.90;;;;;;4998089;28;20956;-70
2023/02/04 02:45:26;;;;;;;3.05;1.58;;;8.50;99.90;;;;;;5018297;28;20686;-70
2023/02/04 02:47:52;;;;;;;3.72;1.50;;;8.40;99.90;;;;;;5016785;28;20234;-70
2023/02/04 02:50:22;;;;;;;2.50;1.50;;;8.70;99.90;;;;;;5016959;28;20201;-70
2023/02/04 02:52:47;;;;;;;3.83;1.75;;;8.60;99.90;;;;;;5020898;28;20546;-70
2023/02/04 02:55:16;;;;;;;2.77;1.50;;;8.50;99.90;;;;;;5014618;28;20182;-70
2023/02/04 02:57:42;;;;;;;2.45;1.55;;;8.50;99.90;;;;;;4997667;28;20217;-70
2023/02/04 03:00:26;;;;;;;3.70;1.67;;;8.40;99.90;;;;;;5003942;28;20558;-69
2023/02/04 03:03:21;;;;;;;2.55;1.45;;;8.30;99.90;;;;;;4994277;28;20185;-70
2023/02/04 03:05:52;;;;;;;2.80;1.95;;;8.00;99.90;;;;;;4997802;28;20214;-70
2023/02/04 03:08:18;;;;;;;3.53;2.25;;;8.30;99.90;;;;;;5018930;28;20214;-70
2023/02/04 03:10:44;;;;;;;3.58;1.90;;;8.40;99.90;;;;;;5006283;28;20530;-70
2023/02/04 03:13:12;;;;;;;3.70;1.52;;;8.40;99.90;;;;;;5015508;28;20179;-70
2023/02/04 03:15:39;;;;;;;3.40;2.05;;;8.40;99.90;;;;;;5018373;28;20526;-70
2023/02/04 03:18:04;;;;;;;2.40;1.73;;;8.20;99.90;;;;;;5017711;28;20187;-70
2023/02/04 03:20:32;;;;;;;4.63;2.07;;;8.50;99.90;;;;;;5024623;28;20190;-70
2023/02/04 03:22:58;;;;;;;3.53;1.55;;;8.30;99.90;;;;;;5019304;28;20190;-69
2023/02/04 03:25:27;;;;;;;2.90;1.63;;;8.00;99.90;;;;;;5003744;28;20240;-70
2023/02/04 03:27:53;;;;;;;3.63;1.50;;;8.30;99.90;;;;;;5020561;28;20464;-71
2023/02/04 03:30:20;;;;;;;2.50;1.92;;;8.30;99.90;;;;;;5019613;28;20194;-70
2023/02/04 03:32:45;;;;;;;3.35;1.73;;;8.40;99.90;;;;;;5000220;28;20273;-70
2023/02/04 03:35:11;;;;;;;5.47;1.70;;;8.40;99.90;;;;;;5017155;28;21792;-70
2023/02/04 03:37:36;;;;;;;5.10;1.80;;;8.40;99.90;;;;;;5014798;28;20194;-70
2023/02/04 03:40:03;;;;;;;4.30;1.90;;;8.50;99.90;;;;;;4997305;28;20257;-70
2023/02/04 03:42:28;;;;;;;3.42;1.60;;;8.80;99.90;;;;;;5012942;28;20190;-69
2023/02/04 03:44:54;;;;;;;4.90;1.97;;;8.40;99.90;;;;;;5014085;28;20186;-70
2023/02/04 03:47:20;;;;;;;1.73;1.63;;;8.40;99.90;;;;;;5003319;28;20218;-69
2023/02/04 03:49:45;;;;;;;4.13;1.87;;;8.40;99.90;;;;;;5019129;28;20187;-69
2023/02/04 03:52:11;;;;;;;2.63;2.07;;;8.50;99.90;;;;;;5014395;28;20221;-70
2023/02/04 03:54:36;;;;;;;2.07;1.70;;;8.10;99.90;;;;;;5018178;28;20258;-70
2023/02/04 03:57:02;;;;;;;4.53;1.87;;;8.40;99.90;;;;;;5017576;28;20301;-70
2023/02/04 03:59:27;;;;;;;2.37;1.90;;;8.30;99.90;;;;;;5015302;28;20264;-70
2023/02/04 04:01:53;;;;;;;4.17;1.40;;;8.10;99.90;;;;;;5007735;28;20193;-70
2023/02/04 04:04:19;;;;;;;5.07;2.63;;;8.10;99.90;;;;;;5019569;28;20187;-70
2023/02/04 04:06:44;;;;;;;5.33;2.37;;;8.20;99.90;;;;;;5016983;28;20247;-69
2023/02/04 04:09:10;;;;;;;4.57;2.50;;;8.10;99.90;;;;;;5020638;28;20282;-70
2023/02/04 04:11:35;;;;;;;3.10;2.00;;;8.10;99.90;;;;;;5020426;28;20189;-70
2023/02/04 04:14:01;;;;;;;5.83;2.27;;;7.70;99.90;;;;;;5022087;28;20182;-70
2023/02/04 04:16:27;;;;;;;4.37;1.83;;;8.10;99.90;;;;;;5016389;28;20206;-70
2023/02/04 04:18:54;;;;;;;3.03;2.22;;;8.20;99.90;;;;;;5008175;28;20181;-70
2023/02/04 04:21:19;;;;;;;4.30;2.88;;;8.20;99.90;;;;;;5008715;28;20206;-70
2023/02/04 04:23:45;;;;;;;3.13;2.23;;;8.30;99.90;;;;;;4995618;28;21648;-70
2023/02/04 04:26:10;;;;;;;5.70;2.10;;;8.20;99.90;;;;;;5014504;28;20280;-70
2023/02/04 04:28:36;;;;;;;2.73;2.00;;;8.20;99.90;;;;;;5018593;28;20210;-70
2023/02/04 04:31:02;;;;;;;2.90;2.20;;;8.00;99.90;;;;;;5015178;28;20187;-70
2023/02/04 04:33:27;;;;;;;3.20;2.20;;;8.10;99.90;;;;;;5014278;28;20199;-70
2023/02/04 04:35:53;;;;;;;3.13;1.93;;;8.30;99.90;;;;;;5019013;28;20198;-70
2023/02/04 04:38:18;;;;;;;5.07;3.33;;;8.30;99.90;;;;;;5014813;28;20264;-70
2023/02/04 04:40:44;;;;;;;2.80;2.40;;;8.50;99.90;;;;;;5015017;28;20186;-69
2023/02/04 04:43:09;;;;;;;3.70;2.00;;;8.30;99.90;;;;;;5019630;28;20186;-70
2023/02/04 04:45:35;;;;;;;2.63;1.90;;;8.30;99.90;;;;;;5011975;28;20269;-69
2023/02/04 04:48:01;;;;;;;3.27;2.37;;;8.40;99.90;;;;;;5015823;28;20217;-70
2023/02/04 04:50:26;;;;;;;2.97;2.30;;;8.00;99.90;;;;;;5000936;28;20206;-70
2023/02/04 04:52:52;;;;;;;3.00;2.40;;;8.50;99.90;;;;;;5022259;28;20662;-70
2023/02/04 04:55:17;;;;;;;3.87;2.40;;;8.60;99.90;;;;;;4998387;28;20186;-69
2023/02/04 04:57:44;;;;;;;3.17;2.20;;;8.60;99.90;;;;;;5016571;28;20197;-70
2023/02/04 05:00:14;;;;;;;2.65;2.45;;;8.50;99.90;;;;;;5001216;28;20194;-69
2023/02/04 05:02:40;;;;;;;3.08;2.30;;;8.40;99.90;;;;;;5016654;28;20186;-70
2023/02/04 05:05:06;;;;;;;3.93;2.77;;;8.10;99.90;;;;;;4998086;28;20655;-72
2023/02/04 05:07:32;;;;;;;5.73;2.50;;;8.30;99.90;;;;;;5018317;28;20502;-70
2023/02/04 05:09:57;;;;;;;3.07;2.43;;;8.30;99.90;;;;;;5017502;28;20179;-70
2023/02/04 05:12:23;;;;;;;3.67;2.70;;;7.60;99.90;;;;;;5012373;28;20182;-71
2023/02/04 05:14:48;;;;;;;4.63;3.03;;;8.40;99.90;;;;;;5019459;28;20697;-71
2023/02/04 05:17:14;;;;;;;2.73;2.50;;;8.00;99.90;;;;;;5021253;28;20215;-70
2023/02/04 05:19:39;;;;;;;5.83;2.97;;;8.30;99.90;;;;;;4998674;28;20203;-71
2023/02/04 05:22:05;;;;;;;5.80;3.30;;;8.50;99.90;;;;;;5014045;28;20182;-71
2023/02/04 05:24:30;;;;;;;4.00;3.13;;;8.50;99.90;;;;;;5012318;28;20415;-69
2023/02/04 05:26:56;;;;;;;4.10;3.60;;;8.30;99.90;;;;;;5012598;28;20210;-69
2023/02/04 05:29:22;;;;;;;4.93;2.93;;;8.30;99.90;;;;;;5014499;28;20695;-69
2023/02/04 05:31:47;;;;;;;4.80;2.67;;;8.10;99.90;;;;;;5012242;28;20209;-69
2023/02/04 05:34:13;;;;;;;5.80;3.63;;;7.70;99.90;;;;;;4997773;28;21573;-70
2023/02/04 05:36:38;;;;;;;6.23;3.33;;;8.30;99.90;;;;;;4997436;28;20199;-69
2023/02/04 05:39:04;;;;;;;5.70;3.20;;;8.20;99.90;;;;;;5000186;28;20617;-69
2023/02/04 05:41:29;;;;;;;4.27;3.33;;;8.40;99.90;;;;;;5015327;28;20191;-70
2023/02/04 05:43:55;;;;;;;3.67;3.37;;;8.20;99.90;;;;;;4993327;28;20232;-70
2023/02/04 05:46:20;;;;;;;7.70;3.20;;;8.30;99.90;;;;;;5010637;28;20284;-69
2023/02/04 05:48:46;;;;;;;5.03;3.37;;;7.90;99.90;;;;;;4995642;28;20211;-69
2023/02/04 05:51:11;;;;;;;5.77;3.70;;;8.30;99.90;;;;;;5001877;28;20227;-69
2023/02/04 05:53:37;;;;;;;4.03;3.17;;;8.10;99.90;;;;;;4995779;28;20184;-69
2023/02/04 05:56:03;;;;;;;6.03;3.70;;;8.10;99.90;;;;;;5012687;28;20212;-69
2023/02/04 05:58:34;;;;;;;5.93;4.40;;;8.20;99.90;;;;;;4994034;28;20303;-71
2023/02/04 06:01:00;;;;;;;8.55;3.60;;;8.30;99.90;;;;;;5008877;28;20187;-70
2023/02/04 06:03:28;;;;;;;7.43;4.43;;;8.20;99.90;;;;;;4994134;28;20254;-70
2023/02/04 06:05:53;;;;;;;6.32;4.00;;;8.20;99.90;;;;;;5001464;28;20199;-69
2023/02/04 06:08:19;;;;;;;5.43;3.50;;;8.10;99.90;;;;;;5017083;28;20207;-69
2023/02/04 06:10:45;;;;;;;4.78;3.50;;;8.80;99.90;;;;;;5015583;28;20183;-69
2023/02/04 06:13:11;;;;;;;6.17;4.00;;;8.00;99.90;;;;;;4997016;28;21460;-69
2023/02/04 06:15:36;;;;;;;5.30;3.53;;;7.90;99.90;;;;;;5015881;28;20675;-69
2023/02/04 06:18:02;;;;;;;7.07;4.57;;;8.00;99.90;;;;;;5017343;28;20189;-69
2023/02/04 06:20:27;;;;;;;8.17;3.63;;;8.10;99.90;;;;;;5014305;28;20191;-69
2023/02/04 06:22:53;;;;;;;3.50;3.20;;;8.30;99.90;;;;;;5014553;28;20190;-68
2023/02/04 06:25:22;;;;;;;7.33;4.43;;;8.00;99.90;;;;;;4997049;28;20238;-69
2023/02/04 06:27:48;;;;;;;9.70;5.10;;;7.60;99.90;;;;;;4994011;28;20217;-70
2023/02/04 06:30:15;;;;;;;6.50;4.57;;;7.90;99.90;;;;;;5017801;28;20191;-68
2023/02/04 06:32:41;;;;;;;11.70;4.70;;;7.90;99.90;;;;;;5005549;28;20676;-68
2023/02/04 06:35:07;;;;;;;5.77;3.97;;;7.40;99.90;;;;;;5007202;28;20224;-71
2023/02/04 06:37:33;;;;;;;8.70;3.95;;;7.80;99.90;;;;;;5019500;28;20293;-69
2023/02/04 06:39:58;;;;;;;6.67;4.20;;;8.00;99.90;;;;;;5024566;28;20320;-71
2023/02/04 06:42:24;;;;;;;9.83;4.60;;;7.80;99.90;;;;;;5026450;28;20202;-71
2023/02/04 06:44:50;;;;;;;8.50;4.73;;;8.30;99.90;;;;;;5021247;28;20315;-72
2023/02/04 06:47:16;;;;;;;9.90;4.88;;;7.50;99.90;;;;;;5027414;28;20221;-73
2023/02/04 06:49:41;;;;;;;9.90;4.33;;;7.80;99.90;;;;;;5022304;28;20804;-73
2023/02/04 06:52:07;;;;;;;11.27;4.70;;;7.70;99.90;;;;;;5032411;28;20251;-73
2023/02/04 06:54:33;;;;;;;8.30;5.13;;;7.90;99.90;;;;;;5020339;28;20186;-73
2023/02/04 06:57:05;;;;;;;6.30;4.80;;;7.80;99.90;;;;;;5006931;28;20210;-67
2023/02/04 06:59:35;;;;;;;11.48;5.40;;;8.10;99.90;;;;;;5019087;28;20182;-67
2023/02/04 07:02:01;;;;;;;9.05;6.05;;;7.80;99.90;;;;;;5027123;28;20199;-65
2023/02/04 07:04:26;;;;;;;11.55;5.95;;;8.00;99.90;;;;;;5022987;28;20201;-66
2023/02/04 07:06:52;;;;;;;11.37;5.10;;;8.00;99.90;;;;;;5024619;28;20213;-68
2023/02/04 07:09:18;;;;;;;11.10;4.70;;;8.10;99.90;;;;;;5023292;28;20287;-67
2023/02/04 07:11:43;;;;;;;6.17;4.33;;;8.00;99.90;;;;;;5009063;28;20266;-69
2023/02/04 07:14:09;;;;;;;7.67;4.13;;;8.20;99.90;;;;;;5015721;28;20663;-69
2023/02/04 07:16:35;;;;;;;8.10;4.83;;;8.10;99.90;;;;;;5023875;28;20339;-68
2023/02/04 07:19:01;;;;;;;12.13;5.00;;;8.00;99.90;;;;;;5017226;28;20189;-67
2023/02/04 07:21:26;;;;;;;13.50;6.20;;;7.90;99.90;;;;;;5020738;28;20261;-67
2023/02/04 07:23:52;;;;;;;9.83;4.57;;;7.90;99.90;;;;;;5019958;28;20439;-68
2023/02/04 07:26:18;;;;;;;7.47;5.23;;;8.00;99.90;;;;;;5015336;28;20211;-65
2023/02/04 07:28:43;;;;;;;13.50;4.90;;;8.00;99.90;;;;;;5017963;28;20245;-67
2023/02/04 07:31:09;;;;;;;7.40;4.73;;;8.00;99.90;;;;;;5012260;28;20474;-67
2023/02/04 07:33:35;;;;;;;6.60;4.47;;;8.30;99.90;;;;;;5017034;28;20202;-68
2023/02/04 07:36:01;;;;;;;6.00;4.60;;;8.10;99.90;;;;;;5017867;28;20237;-68
2023/02/04 07:38:26;;;;;;;13.45;8.68;;;8.00;99.90;;;;;;5013950;28;20191;-68
2023/02/04 07:40:52;;;;;;;16.37;4.87;;;7.90;99.90;;;;;;5019979;28;20194;-69
2023/02/04 07:43:18;;;;;;;7.73;4.47;;;7.80;99.90;;;;;;5020798;28;20186;-68
2023/02/04 07:45:43;;;;;;;9.93;4.60;;;8.40;99.90;;;;;;5022705;28;20214;-67
2023/02/04 07:48:09;;;;;;;10.60;5.70;;;8.10;99.90;;;;;;5019864;28;20612;-65
2023/02/04 07:50:35;;;;;;;8.98;4.78;;;7.70;99.90;;;;;;5021537;28;20182;-65
2023/02/04 07:53:01;;;;;;;7.43;4.80;;;8.00;99.90;;;;;;5015399;28;20297;-65
2023/02/04 07:55:27;;;;;;;11.30;5.97;;;8.20;99.90;;;;;;5019760;28;21000;-65
2023/02/04 07:57:53;;;;;;;7.25;4.43;;;8.20;99.90;;;;;;5018503;28;20183;-65
2023/02/04 08:00:21;;;;;;;11.17;4.60;;;8.10;99.90;;;;;;5015782;28;20209;-66
2023/02/04 08:02:50;;;;;;;10.52;5.05;;;8.10;99.90;;;;;;5005047;28;20255;-65
2023/02/04 08:05:19;;;;;;;6.40;4.32;;;8.10;99.90;;;;;;5017718;28;20754;-65
2023/02/04 08:07:45;;;;;;;7.40;4.35;;;8.00;99.90;;;;;;4993120;28;20214;-66
2023/02/04 08:10:11;;;;;;;7.47;4.60;;;7.90;99.90;;;;;;5011540;28;20189;-67
2023/02/04 08:12:37;;;;;;;8.20;4.07;;;8.00;99.90;;;;;;5017046;28;20242;-66
2023/02/04 08:15:03;;;;;;;9.13;5.30;;;7.80;99.90;;;;;;5019409;28;20652;-68
2023/02/04 08:17:29;;;;;;;6.25;3.92;;;8.10;99.90;;;;;;5019517;28;20782;-67
2023/02/04 08:19:55;;;;;;;15.00;5.50;;;8.00;99.90;;;;;;5022703;28;20274;-67
2023/02/04 08:22:21;;;;;;;7.63;3.78;;;8.20;99.90;;;;;;5006285;28;20518;-66
2023/02/04 08:24:46;;;;;;;8.43;4.90;;;7.50;99.90;;;;;;5022742;28;20269;-66
2023/02/04 08:27:13;;;;;;;11.00;3.90;;;8.20;99.90;;;;;;5019982;28;20312;-66
2023/02/04 08:29:38;;;;;;;11.73;4.43;;;8.20;99.90;;;;;;5015714;28;20179;-66
2023/02/04 08:32:04;;;;;;;7.87;3.47;;;8.40;99.90;;;;;;5023828;28;20227;-67
2023/02/04 08:34:30;;;;;;;7.33;4.80;;;7.80;99.90;;;;;;5014735;28;20234;-67
2023/02/04 08:36:55;;;;;;;6.37;4.03;;;8.50;99.90;;;;;;5016871;28;20305;-67
2023/02/04 08:39:21;;;;;;;7.93;4.10;;;8.60;99.90;;;;;;5013152;28;20461;-66
2023/02/04 08:41:48;;;;;;;10.13;4.43;;;8.70;99.90;;;;;;5023916;28;20245;-66
2023/02/04 08:44:14;;;;;;;9.07;4.82;;;8.10;99.90;;;;;;5009852;28;20191;-67
2023/02/04 08:46:40;;;;;;;7.68;3.97;;;8.60;99.90;;;;;;5020696;28;20214;-67
2023/02/04 08:49:05;;;;;;;6.83;4.57;;;8.90;99.90;;;;;;5011060;28;20187;-67
2023/02/04 08:51:31;;;;;;;7.73;4.53;;;9.10;99.90;;;;;;5010423;28;20191;-67
2023/02/04 08:53:57;;;;;;;9.30;4.60;;;8.80;99.90;;;;;;5009347;28;20194;-67
2023/02/04 08:56:23;;;;;;;10.80;5.37;;;8.50;99.90;;;;;;5017786;28;20502;-66
2023/02/04 08:58:48;;;;;;;7.93;5.03;;;8.60;99.90;;;;;;5015852;28;20566;-67
2023/02/04 09:01:14;;;;;;;10.93;5.80;;;8.50;99.90;;;;;;5013746;28;20465;-67
2023/02/04 09:03:39;;;;;;;8.63;5.87;;;8.60;99.90;;;;;;5014874;28;20198;-67
2023/02/04 09:06:06;;;;;;;9.13;4.87;;;8.60;99.90;;;;;;5013501;28;20210;-67
2023/02/04 09:08:32;;;;;;;9.05;5.15;;;9.00;99.90;;;;;;5015657;28;20221;-65
2023/02/04 09:10:57;;;;;;;11.30;4.93;;;8.70;99.90;;;;;;5015442;28;20179;-65
2023/02/04 09:13:23;;;;;;;8.77;4.90;;;9.10;99.90;;;;;;5012146;28;20926;-65
2023/02/04 09:15:48;;;;;;;7.23;3.60;;;8.80;99.90;;;;;;5017281;28;20212;-65
2023/02/04 09:18:16;;;;;;;7.73;4.20;;;9.40;99.90;;;;;;4995279;28;20206;-65
2023/02/04 09:20:45;;;;;;;12.40;4.43;;;9.70;99.90;;;;;;5012523;28;20274;-66
2023/02/04 09:23:12;;;;;;;4.68;3.58;;;10.10;99.90;;;;;;5015249;28;20191;-66
2023/02/04 09:25:38;;;;;;;7.90;3.65;;;10.20;99.90;;;;;;4993778;28;20207;-66
2023/02/04 09:28:04;;;;;;;6.90;4.07;;;10.70;99.90;;;;;;5013139;28;20265;-66
2023/02/04 09:30:30;;;;;;;6.70;5.18;;;11.60;99.90;;;;;;5011344;28;20186;-66
2023/02/04 09:32:55;;;;;;;5.03;4.10;;;12.10;99.90;;;;;;4955294;28;1076897;-67
2023/02/04 09:35:21;;;;;;;7.50;4.07;;;12.20;99.90;;;;;;5016443;28;20175;-67
2023/02/04 09:37:47;;;;;;;6.90;3.80;;;12.50;99.90;;;;;;5007248;28;20190;-66
2023/02/04 09:40:16;;;;;;;8.23;4.10;;;12.10;99.10;;;;;;5023610;28;20216;-67
2023/02/04 09:42:43;;;;;;;9.98;3.53;;;12.00;99.90;;;;;;5009809;28;20231;-66
2023/02/04 09:45:23;;;;;;;5.55;3.42;;;11.70;98.80;;;;;;5010951;28;20281;-64
2023/02/04 09:47:50;;;;;;;8.55;3.72;;;12.20;99.00;;;;;;5015587;28;20257;-66
2023/02/04 09:50:18;;;;;;;6.45;4.57;;;12.80;98.90;;;;;;5017065;28;20193;-66
2023/02/04 09:52:48;;;;;;;7.22;3.10;;;13.30;97.60;;;;;;5017508;28;20329;-66
2023/02/04 09:55:19;;;;;;;9.93;3.50;;;13.40;96.10;;;;;;5013575;28;20272;-66
2023/02/04 09:57:46;;;;;;;4.25;2.70;;;13.60;94.70;;;;;;5010381;28;20198;-66
2023/02/04 10:00:17;;;;;;;8.38;2.50;;;13.80;93.10;;;;;;5010512;28;20229;-66
2023/02/04 10:02:43;;;;;;;7.78;3.00;;;13.40;91.30;;;;;;5018373;28;20186;-66
2023/02/04 10:05:14;;;;;;;9.67;3.07;;;13.60;92.60;;;;;;5012156;28;20194;-67
2023/02/04 10:07:40;;;;;;;2.95;1.80;;;13.80;91.80;;;;;;4998006;28;20461;-67
2023/02/04 10:10:06;;;;;;;5.80;2.70;;;13.20;90.40;;;;;;5015304;28;20186;-67
2023/02/04 10:12:31;;;;;;;5.63;2.60;;;12.90;91.70;;;;;;5020634;28;20201;-67
2023/02/04 10:14:59;;;;;;;12.57;2.67;;;12.60;91.20;;;;;;5013036;28;20726;-66
2023/02/04 10:17:25;;;;;;;3.97;2.60;;;12.30;92.60;;;;;;5013216;28;20221;-66
2023/02/04 10:19:51;;;;;;;5.43;3.23;;;12.40;93.10;;;;;;5016980;28;20186;-66
2023/02/04 10:22:21;;;;;;;9.18;3.35;;;12.70;92.20;;;;;;5021253;28;20593;-67
2023/02/04 10:24:47;;;;;;;8.75;3.60;;;13.40;92.20;;;;;;5014259;28;20590;-66
2023/02/04 10:27:15;;;;;;;7.60;3.43;;;13.90;92.10;;;;;;5017831;28;20518;-67
2023/02/04 10:29:41;;;;;;;6.95;2.35;;;14.40;91.20;;;;;;4998884;28;20507;-67
2023/02/04 10:32:29;;;;;;;5.70;2.17;;;14.70;89.00;;;;;;5018286;28;20182;-67
2023/02/04 10:34:59;;;;;;;5.63;2.63;;;14.50;86.50;;;;;;5019165;28;20205;-66
2023/02/04 10:37:25;;;;;;;9.00;3.08;;;14.20;87.50;;;;;;4998152;28;20683;-67
2023/02/04 10:39:52;;;;;;;5.83;2.83;;;13.60;88.70;;;;;;5022695;28;20197;-66
2023/02/04 10:42:29;;;;;;;7.00;3.10;;;13.00;90.20;;;;;;5019250;28;20449;-66
2023/02/04 10:44:55;;;;;;;5.35;3.03;;;12.60;91.60;;;;;;5018753;28;20189;-66
2023/02/04 10:47:23;;;;;;;7.20;3.40;;;12.10;91.90;;;;;;5019089;28;20217;-66
2023/02/04 10:50:03;;;;;;;11.15;2.90;;;12.00;92.70;;;;;;5020099;28;20445;-66
2023/02/04 10:52:35;;;;;;;7.13;3.20;;;11.70;92.90;;;;;;5003903;28;20196;-66
2023/02/04 10:55:03;;;;;;;9.93;3.53;;;11.20;94.00;;;;;;5018890;28;20270;-66
2023/02/04 10:57:30;;;;;;;9.30;2.47;;;11.40;94.50;;;;;;4995975;28;20217;-66
2023/02/04 10:59:59;;;;;;;6.07;3.22;;;10.90;93.50;;;;;;5020474;28;20187;-66
2023/02/04 11:02:38;;;;;;;7.30;3.17;;;10.70;93.80;;;;;;4993618;28;20227;-66
2023/02/04 11:05:10;;;;;;;10.57;3.15;;;10.80;94.00;;;;;;5013685;28;20725;-66
2023/02/04 11:07:35;;;;;;;6.95;2.60;;;10.70;93.00;;;;;;5016754;28;20206;-68
2023/02/04 11:10:01;;;;;;;6.07;2.30;;;10.70;93.30;;;;;;5025098;28;20716;-66
2023/02/04 11:12:42;;;;;;;4.63;2.70;;;11.90;93.30;;;;;;5018658;28;20186;-67
2023/02/04 11:15:35;;;;;;;4.28;2.30;;;12.90;90.80;;;;;;5023404;28;20682;-68
2023/02/04 11:18:26;;;;;;;3.67;2.40;;;13.50;87.50;;;;;;5020761;28;20185;-67
2023/02/04 11:20:55;;;;;;;8.13;3.20;;;13.00;86.80;;;;;;4989374;28;20213;-67
2023/02/04 11:23:31;;;;;;;6.07;2.70;;;12.70;89.30;;;;;;5019348;28;20277;-67
2023/02/04 11:26:12;;;;;;;7.07;2.78;;;12.60;90.40;;;;;;5004267;28;20292;-66
2023/02/04 11:28:47;;;;;;;7.80;2.55;;;12.00;91.30;;;;;;5024831;28;20240;-67
2023/02/04 11:31:18;;;;;;;8.00;3.13;;;11.50;91.50;;;;;;5017920;28;20319;-66
2023/02/04 11:33:45;;;;;;;6.00;2.53;;;11.10;92.40;;;;;;5025681;28;20193;-68
2023/02/04 11:36:13;;;;;;;10.43;2.95;;;11.00;93.30;;;;;;5018126;28;20211;-67
2023/02/04 11:38:44;;;;;;;7.15;3.10;;;10.80;93.90;;;;;;5019471;28;20191;-69
2023/02/04 11:41:20;;;;;;;7.13;2.80;;;10.70;94.10;;;;;;5019127;28;20193;-67
2023/02/04 11:43:49;;;;;;;5.65;2.80;;;10.80;94.10;;;;;;5015733;28;20601;-67
2023/02/04 11:46:16;;;;;;;4.93;2.80;;;10.70;93.90;;;;;;5015660;28;20223;-66
2023/02/04 11:48:42;;;;;;;10.25;2.83;;;10.60;93.70;;;;;;5014568;28;20218;-67
2023/02/04 11:51:14;;;;;;;4.95;2.20;;;10.40;94.30;;;;;;5013353;28;20194;-66
2023/02/04 11:53:40;;;;;;;10.15;3.30;;;10.60;94.10;;;;;;5014486;28;20193;-68
2023/02/04 11:56:06;;;;;;;6.20;2.60;;;10.50;93.80;;;;;;4993400;28;20336;-67
2023/02/04 11:58:32;;;;;;;8.47;3.10;;;10.30;93.70;;;;;;5011569;28;20607;-68
2023/02/04 12:00:58;;;;;;;12.00;3.35;;;10.60;94.00;;;;;;5019432;28;20658;-67
2023/02/04 12:03:29;;;;;;;6.38;2.80;;;10.20;94.30;;;;;;5016659;28;20208;-67
2023/02/04 12:05:56;;;;;;;12.32;3.05;;;10.20;95.00;;;;;;5022186;28;20669;-68
2023/02/04 12:08:21;;;;;;;8.52;2.85;;;10.40;94.70;;;;;;5016958;28;20745;-68
2023/02/04 12:11:10;;;;;;;9.37;2.53;;;10.60;95.00;;;;;;5017922;28;20509;-67
2023/02/04 12:13:52;;;;;;;5.70;2.58;;;10.30;94.90;;;;;;5016313;28;20223;-66
2023/02/04 12:16:18;;;;;;;10.77;3.53;;;10.20;94.70;;;;;;5017706;28;20681;-68
2023/02/04 12:18:44;;;;;;;6.40;3.05;;;9.80;95.20;;;;;;5027101;28;20383;-67
2023/02/04 12:21:09;;;;;;;8.10;3.20;;;10.50;95.00;;;;;;5003572;28;20184;-67
2023/02/04 12:23:35;;;;;;;9.20;2.70;;;10.50;93.90;;;;;;5024291;28;20481;-65
2023/02/04 12:26:00;;;;;;;14.67;4.07;;;10.80;93.60;;;;;;5018165;28;20872;-66
2023/02/04 12:28:27;;;;;;;6.70;2.83;;;10.60;93.30;;;;;;5019456;28;20219;-68
2023/02/04 12:30:53;;;;;;;6.55;2.60;;;10.70;93.10;;;;;;5010903;28;20188;-67
2023/02/04 12:33:19;;;;;;;5.30;2.70;;;10.20;93.10;;;;;;5021515;28;20670;-67
2023/02/04 12:35:45;;;;;;;7.43;3.47;;;10.90;93.60;;;;;;4997732;28;20248;-67
2023/02/04 12:38:11;;;;;;;9.33;2.57;;;11.10;93.70;;;;;;5014871;28;20450;-67
2023/02/04 12:40:37;;;;;;;9.37;3.00;;;10.90;92.90;;;;;;5002348;28;20448;-67
2023/02/04 12:43:03;;;;;;;2.45;1.63;;;10.90;92.60;;;;;;5021388;28;20191;-67
2023/02/04 12:45:29;;;;;;;4.72;2.35;;;10.70;90.90;;;;;;4999004;28;20241;-67
2023/02/04 12:47:54;;;;;;;10.20;2.83;;;10.90;91.20;;;;;;5022320;28;20216;-67
2023/02/04 12:50:23;;;;;;;3.43;1.93;;;10.80;90.90;;;;;;5019897;28;20540;-67
2023/02/04 12:52:53;;;;;;;3.97;2.20;;;10.60;90.80;;;;;;5020969;28;20185;-67